createdAt,value
2023-09-27T00:00:17.706Z,16.70
2023-09-27T00:01:17.776Z,17.60
2023-09-27T00:02:17.728Z,17.30
2023-09-27T00:03:17.731Z,16.80
2023-09-27T00:04:17.678Z,16.80
2023-09-27T00:05:17.815Z,16.00
2023-09-27T00:06:17.668Z,15.00
2023-09-27T00:07:17.688Z,15.40
2023-09-27T00:08:17.663Z,15.10
2023-09-27T00:09:17.611Z,13.10
2023-09-27T00:10:17.608Z,14.20
2023-09-27T00:11:17.720Z,15.40
2023-09-27T00:12:17.582Z,14.80
2023-09-27T00:13:17.582Z,14.90
2023-09-27T00:14:17.607Z,15.80
2023-09-27T00:15:17.590Z,16.60
2023-09-27T00:16:17.595Z,16.70
2023-09-27T00:17:17.623Z,15.40
2023-09-27T00:18:17.646Z,15.30
2023-09-27T00:19:17.501Z,15.10
2023-09-27T00:20:17.870Z,16.40
2023-09-27T00:21:17.501Z,16.90
2023-09-27T00:22:17.487Z,16.70
2023-09-27T00:23:17.523Z,17.80
2023-09-27T00:24:17.443Z,18.30
2023-09-27T00:25:17.461Z,18.70
2023-09-27T00:26:17.510Z,20.80
2023-09-27T00:27:17.426Z,19.20
2023-09-27T00:28:17.401Z,19.10
2023-09-27T00:29:17.474Z,18.30
2023-09-27T00:30:17.429Z,20.30
2023-09-27T00:31:17.507Z,20.40
2023-09-27T00:32:17.402Z,19.70
2023-09-27T00:33:17.455Z,18.50
2023-09-27T00:34:17.390Z,18.10
2023-09-27T00:35:17.383Z,19.30
2023-09-27T00:36:17.354Z,18.80
2023-09-27T00:37:17.321Z,18.90
2023-09-27T00:38:17.428Z,17.90
2023-09-27T00:39:17.346Z,19.00
2023-09-27T00:40:17.291Z,18.70
2023-09-27T00:41:17.333Z,18.90
2023-09-27T00:42:17.258Z,19.40
2023-09-27T00:43:17.330Z,16.30
2023-09-27T00:44:17.293Z,15.00
2023-09-27T00:45:17.252Z,16.10
2023-09-27T00:46:17.295Z,16.20
2023-09-27T00:47:17.275Z,18.50
2023-09-27T00:48:17.253Z,19.30
2023-09-27T00:49:17.202Z,19.90
2023-09-27T00:50:17.259Z,20.30
2023-09-27T00:51:17.208Z,19.80
2023-09-27T00:52:17.181Z,19.70
2023-09-27T00:53:17.198Z,20.10
2023-09-27T00:54:17.189Z,19.60
2023-09-27T00:55:17.186Z,19.60
2023-09-27T00:56:17.183Z,19.00
2023-09-27T00:57:17.121Z,20.20
2023-09-27T00:58:17.177Z,20.40
2023-09-27T00:59:17.152Z,19.80
2023-09-27T01:00:17.063Z,20.20
2023-09-27T01:01:17.136Z,23.00
2023-09-27T01:02:17.132Z,20.70
2023-09-27T01:03:17.093Z,22.40
2023-09-27T01:04:17.105Z,22.50
2023-09-27T01:05:17.229Z,20.70
2023-09-27T01:06:17.052Z,20.90
2023-09-27T01:07:17.019Z,22.20
2023-09-27T01:08:17.034Z,19.00
2023-09-27T01:09:16.993Z,20.90
2023-09-27T01:10:17.043Z,22.60
2023-09-27T01:11:17.027Z,22.00
2023-09-27T01:12:16.989Z,22.60
2023-09-27T01:13:16.972Z,21.00
2023-09-27T01:14:17.014Z,23.50
2023-09-27T01:15:16.929Z,22.70
2023-09-27T01:16:16.929Z,21.40
2023-09-27T01:17:16.930Z,22.10
2023-09-27T01:18:17.005Z,24.00
2023-09-27T01:19:16.849Z,23.60
2023-09-27T01:20:16.854Z,24.90
2023-09-27T01:21:16.986Z,26.40
2023-09-27T01:22:16.824Z,26.30
2023-09-27T01:23:16.948Z,27.60
2023-09-27T01:24:16.850Z,26.40
2023-09-27T01:25:16.852Z,26.10
2023-09-27T01:26:16.861Z,25.40
2023-09-27T01:27:16.796Z,25.30
2023-09-27T01:28:16.769Z,25.30
2023-09-27T01:29:16.855Z,23.90
2023-09-27T01:30:16.758Z,24.30
2023-09-27T01:31:16.759Z,25.40
2023-09-27T01:32:16.771Z,24.90
2023-09-27T01:33:16.782Z,25.20
2023-09-27T01:34:16.815Z,24.90
2023-09-27T01:35:16.740Z,24.90
2023-09-27T01:36:16.697Z,24.10
2023-09-27T01:37:16.664Z,22.00
2023-09-27T01:38:16.719Z,20.60
2023-09-27T01:39:16.709Z,20.20
2023-09-27T01:40:16.648Z,19.40
2023-09-27T01:41:16.680Z,19.90
2023-09-27T01:42:16.629Z,20.30
2023-09-27T01:43:16.598Z,19.50
2023-09-27T01:44:16.687Z,21.00
2023-09-27T01:45:16.578Z,20.70
2023-09-27T01:46:16.638Z,22.40
2023-09-27T01:47:16.576Z,21.90
2023-09-27T01:48:16.696Z,23.00
2023-09-27T01:49:16.561Z,22.30
2023-09-27T01:50:16.548Z,24.40
2023-09-27T01:51:16.521Z,22.50
2023-09-27T01:52:16.525Z,20.80
2023-09-27T01:53:16.563Z,20.80
2023-09-27T01:54:16.539Z,23.70
2023-09-27T01:55:16.462Z,24.30
2023-09-27T01:56:16.548Z,22.90
2023-09-27T01:57:16.449Z,24.70
2023-09-27T01:58:16.464Z,21.50
2023-09-27T01:59:16.486Z,22.60
2023-09-27T02:00:16.413Z,24.10
2023-09-27T02:01:16.450Z,33.40
2023-09-27T02:02:16.455Z,26.80
2023-09-27T02:03:16.536Z,23.50
2023-09-27T02:04:16.458Z,26.50
2023-09-27T02:05:16.639Z,39.60
2023-09-27T02:06:16.354Z,42.50
2023-09-27T02:07:16.355Z,41.10
2023-09-27T02:08:16.416Z,37.10
2023-09-27T02:09:16.316Z,39.90
2023-09-27T02:10:16.343Z,40.80
2023-09-27T02:11:16.352Z,39.70
2023-09-27T02:12:16.361Z,41.60
2023-09-27T02:13:16.272Z,37.30
2023-09-27T02:14:16.347Z,35.10
2023-09-27T02:15:16.245Z,36.60
2023-09-27T02:16:16.284Z,35.60
2023-09-27T02:17:16.336Z,33.60
2023-09-27T02:18:16.301Z,33.00
2023-09-27T02:19:16.220Z,34.30
2023-09-27T02:20:16.224Z,34.40
2023-09-27T02:21:16.204Z,35.40
2023-09-27T02:22:16.197Z,35.90
2023-09-27T02:23:16.216Z,35.60
2023-09-27T02:24:16.158Z,38.10
2023-09-27T02:25:16.671Z,36.70
2023-09-27T02:26:16.209Z,37.80
2023-09-27T02:27:16.142Z,36.00
2023-09-27T02:28:16.109Z,36.70
2023-09-27T02:29:16.143Z,38.50
2023-09-27T02:30:16.161Z,42.50
2023-09-27T02:31:16.180Z,42.30
2023-09-27T02:32:16.158Z,42.20
2023-09-27T02:33:16.119Z,43.00
2023-09-27T02:34:16.050Z,45.00
2023-09-27T02:35:16.197Z,51.20
2023-09-27T02:36:16.030Z,52.40
2023-09-27T02:37:16.018Z,47.40
2023-09-27T02:38:16.098Z,48.50
2023-09-27T02:39:16.025Z,45.40
2023-09-27T02:40:16.001Z,46.30
2023-09-27T02:41:16.057Z,48.70
2023-09-27T02:42:15.970Z,50.00
2023-09-27T02:43:15.954Z,50.40
2023-09-27T02:44:15.994Z,50.50
2023-09-27T02:45:15.965Z,49.10
2023-09-27T02:46:16.039Z,47.30
2023-09-27T02:47:15.971Z,44.40
2023-09-27T02:48:15.931Z,50.90
2023-09-27T02:49:15.973Z,57.00
2023-09-27T02:50:16.318Z,51.50
2023-09-27T02:51:15.906Z,49.20
2023-09-27T02:52:15.861Z,49.60
2023-09-27T02:53:15.905Z,53.90
2023-09-27T02:54:15.908Z,56.00
2023-09-27T02:55:16.154Z,55.50
2023-09-27T02:56:15.896Z,62.00
2023-09-27T02:57:15.804Z,61.30
2023-09-27T02:58:15.798Z,59.80
2023-09-27T02:59:15.858Z,58.90
2023-09-27T03:00:15.765Z,58.70
2023-09-27T03:01:15.797Z,58.00
2023-09-27T03:02:15.812Z,55.10
2023-09-27T03:03:15.973Z,53.20
2023-09-27T03:04:15.777Z,55.00
2023-09-27T03:05:15.765Z,55.40
2023-09-27T03:06:15.718Z,54.40
2023-09-27T03:07:15.700Z,54.70
2023-09-27T03:08:15.854Z,53.10
2023-09-27T03:09:15.675Z,48.40
2023-09-27T03:10:15.791Z,49.00
2023-09-27T03:11:15.701Z,50.30
2023-09-27T03:12:15.654Z,45.80
2023-09-27T03:13:15.693Z,47.70
2023-09-27T03:14:15.647Z,49.20
2023-09-27T03:15:15.636Z,48.00
2023-09-27T03:16:15.668Z,45.90
2023-09-27T03:17:15.746Z,47.70
2023-09-27T03:18:15.701Z,48.20
2023-09-27T03:19:15.577Z,46.50
2023-09-27T03:20:15.697Z,49.60
2023-09-27T03:21:15.597Z,49.60
2023-09-27T03:22:15.594Z,46.00
2023-09-27T03:23:15.633Z,43.40
2023-09-27T03:24:15.527Z,45.00
2023-09-27T03:25:15.585Z,47.70
2023-09-27T03:26:15.579Z,43.20
2023-09-27T03:27:15.510Z,44.90
2023-09-27T03:28:15.487Z,47.90
2023-09-27T03:29:15.529Z,48.10
2023-09-27T03:30:15.470Z,47.90
2023-09-27T03:31:15.490Z,48.60
2023-09-27T03:32:15.477Z,49.40
2023-09-27T03:33:15.515Z,49.80
2023-09-27T03:34:15.416Z,44.70
2023-09-27T03:35:15.486Z,44.30
2023-09-27T03:36:15.429Z,46.70
2023-09-27T03:37:15.389Z,46.80
2023-09-27T03:38:15.395Z,47.20
2023-09-27T03:39:15.359Z,48.30
2023-09-27T03:40:16.191Z,47.10
2023-09-27T03:41:15.417Z,47.30
2023-09-27T03:42:15.331Z,48.60
2023-09-27T03:43:15.323Z,46.30
2023-09-27T03:44:15.354Z,47.20
2023-09-27T03:45:15.756Z,45.40
2023-09-27T03:46:15.307Z,46.10
2023-09-27T03:47:15.385Z,45.70
2023-09-27T03:48:15.358Z,45.70
2023-09-27T03:49:15.259Z,43.60
2023-09-27T03:50:15.317Z,41.90
2023-09-27T03:51:15.244Z,43.40
2023-09-27T03:52:15.239Z,43.40
2023-09-27T03:53:15.249Z,45.60
2023-09-27T03:54:15.234Z,47.60
2023-09-27T03:55:15.247Z,44.80
2023-09-27T03:56:15.235Z,46.80
2023-09-27T03:57:15.175Z,44.40
2023-09-27T03:58:15.197Z,41.20
2023-09-27T03:59:15.320Z,39.50
2023-09-27T04:00:15.444Z,40.30
2023-09-27T04:01:15.170Z,40.20
2023-09-27T04:02:15.235Z,40.30
2023-09-27T04:03:15.320Z,40.30
2023-09-27T04:04:15.228Z,39.30
2023-09-27T04:05:15.142Z,38.90
2023-09-27T04:06:15.096Z,39.50
2023-09-27T04:07:15.065Z,39.90
2023-09-27T04:08:15.415Z,39.70
2023-09-27T04:09:15.099Z,37.80
2023-09-27T04:10:15.044Z,37.20
2023-09-27T04:11:15.121Z,36.90
2023-09-27T04:12:15.261Z,38.00
2023-09-27T04:13:15.046Z,38.20
2023-09-27T04:14:15.045Z,36.70
2023-09-27T04:15:15.027Z,37.60
2023-09-27T04:16:15.035Z,36.70
2023-09-27T04:17:15.029Z,37.50
2023-09-27T04:18:15.069Z,37.00
2023-09-27T04:19:14.941Z,37.90
2023-09-27T04:20:14.987Z,37.30
2023-09-27T04:21:14.971Z,38.50
2023-09-27T04:22:15.000Z,39.10
2023-09-27T04:23:14.996Z,38.80
2023-09-27T04:24:14.899Z,40.80
2023-09-27T04:25:14.886Z,38.50
2023-09-27T04:26:14.927Z,39.50
2023-09-27T04:27:14.900Z,39.60
2023-09-27T04:28:14.873Z,39.10
2023-09-27T04:29:14.864Z,38.50
2023-09-27T04:30:14.850Z,39.00
2023-09-27T04:31:14.886Z,37.00
2023-09-27T04:32:14.872Z,38.00
2023-09-27T04:33:14.823Z,36.20
2023-09-27T04:34:14.802Z,38.10
2023-09-27T04:35:14.941Z,39.40
2023-09-27T04:36:14.778Z,38.20
2023-09-27T04:37:14.784Z,38.10
2023-09-27T04:38:14.773Z,37.60
2023-09-27T04:39:14.747Z,38.40
2023-09-27T04:40:14.770Z,38.50
2023-09-27T04:41:14.840Z,44.90
2023-09-27T04:42:14.757Z,43.40
2023-09-27T04:43:14.644Z,49.80
2023-09-27T04:44:14.728Z,50.70
2023-09-27T04:45:14.664Z,50.70
2023-09-27T04:46:14.744Z,51.40
2023-09-27T04:47:14.627Z,50.80
2023-09-27T04:48:14.641Z,51.00
2023-09-27T04:49:14.587Z,50.20
2023-09-27T04:50:14.645Z,50.70
2023-09-27T04:51:14.609Z,46.90
2023-09-27T04:52:14.547Z,44.60
2023-09-27T04:53:14.587Z,44.80
2023-09-27T04:54:14.711Z,43.50
2023-09-27T04:55:14.720Z,42.60
2023-09-27T04:56:14.608Z,42.10
2023-09-27T04:57:14.494Z,42.30
2023-09-27T04:58:14.474Z,40.90
2023-09-27T04:59:14.540Z,39.80
2023-09-27T05:00:14.531Z,38.90
2023-09-27T05:01:14.558Z,38.30
2023-09-27T05:02:14.593Z,38.30
2023-09-27T05:03:14.576Z,38.90
2023-09-27T05:04:14.509Z,38.80
2023-09-27T05:05:14.458Z,38.10
2023-09-27T05:06:14.402Z,37.00
2023-09-27T05:07:14.451Z,36.80
2023-09-27T05:08:14.402Z,35.70
2023-09-27T05:09:14.398Z,36.50
2023-09-27T05:10:14.429Z,36.40
2023-09-27T05:11:15.885Z,38.40
2023-09-27T05:12:14.325Z,38.20
2023-09-27T05:13:14.820Z,37.40
2023-09-27T05:14:14.604Z,41.10
2023-09-27T05:15:14.355Z,41.10
2023-09-27T05:16:14.399Z,41.70
2023-09-27T05:17:14.325Z,40.80
2023-09-27T05:18:14.372Z,42.00
2023-09-27T05:19:14.283Z,42.70
2023-09-27T05:20:14.676Z,42.70
2023-09-27T05:21:14.277Z,45.10
2023-09-27T05:22:14.233Z,47.40
2023-09-27T05:23:14.337Z,44.60
2023-09-27T05:24:14.231Z,52.20
2023-09-27T05:25:14.228Z,49.80
2023-09-27T05:26:14.229Z,48.90
2023-09-27T05:27:14.323Z,49.10
2023-09-27T05:28:14.193Z,49.50
2023-09-27T05:29:14.186Z,51.00
2023-09-27T05:30:14.150Z,49.60
2023-09-27T05:31:14.214Z,49.60
2023-09-27T05:32:14.198Z,49.10
2023-09-27T05:33:14.188Z,47.70
2023-09-27T05:34:14.095Z,48.20
2023-09-27T05:35:14.117Z,47.10
2023-09-27T05:36:15.581Z,48.90
2023-09-27T05:37:16.622Z,47.60
2023-09-27T05:38:14.089Z,48.90
2023-09-27T05:39:14.144Z,46.30
2023-09-27T05:40:14.073Z,47.30
2023-09-27T05:41:14.107Z,45.80
2023-09-27T05:42:14.072Z,46.80
2023-09-27T05:43:14.009Z,45.60
2023-09-27T05:44:14.031Z,46.00
2023-09-27T05:45:14.048Z,46.80
2023-09-27T05:46:14.012Z,46.40
2023-09-27T05:47:14.112Z,46.90
2023-09-27T05:48:14.097Z,48.20
2023-09-27T05:49:13.951Z,48.40
2023-09-27T05:50:14.480Z,49.20
2023-09-27T05:51:13.974Z,50.10
2023-09-27T05:52:13.911Z,50.90
2023-09-27T05:53:13.961Z,48.60
2023-09-27T05:54:13.907Z,47.40
2023-09-27T05:55:13.885Z,48.10
2023-09-27T05:56:13.924Z,47.70
2023-09-27T05:57:13.869Z,46.70
2023-09-27T05:58:13.865Z,44.40
2023-09-27T05:59:13.924Z,44.00
2023-09-27T06:00:13.856Z,43.80
2023-09-27T06:01:13.977Z,44.00
2023-09-27T06:02:13.875Z,44.40
2023-09-27T06:03:13.877Z,41.90
2023-09-27T06:04:13.833Z,42.50
2023-09-27T06:05:14.099Z,41.00
2023-09-27T06:06:13.764Z,41.20
2023-09-27T06:07:13.755Z,40.60
2023-09-27T06:08:13.804Z,38.90
2023-09-27T06:09:13.786Z,39.80
2023-09-27T06:10:13.748Z,38.60
2023-09-27T06:11:13.756Z,40.30
2023-09-27T06:12:13.704Z,41.10
2023-09-27T06:13:13.682Z,39.70
2023-09-27T06:14:13.738Z,40.30
2023-09-27T06:15:13.736Z,40.00
2023-09-27T06:16:13.682Z,40.30
2023-09-27T06:17:13.749Z,40.40
2023-09-27T06:18:13.850Z,40.90
2023-09-27T06:19:13.665Z,41.50
2023-09-27T06:20:13.786Z,39.90
2023-09-27T06:21:13.605Z,39.90
2023-09-27T06:22:13.587Z,37.70
2023-09-27T06:23:13.735Z,37.90
2023-09-27T06:24:13.600Z,37.10
2023-09-27T06:25:13.565Z,38.80
2023-09-27T06:26:13.589Z,40.40
2023-09-27T06:27:13.539Z,39.00
2023-09-27T06:28:13.579Z,39.30
2023-09-27T06:29:13.606Z,39.20
2023-09-27T06:30:13.559Z,41.40
2023-09-27T06:31:13.559Z,42.90
2023-09-27T06:32:13.543Z,44.00
2023-09-27T06:33:13.600Z,41.00
2023-09-27T06:34:13.456Z,40.30
2023-09-27T06:35:13.546Z,41.30
2023-09-27T06:36:13.430Z,40.90
2023-09-27T06:37:13.430Z,40.20
2023-09-27T06:38:13.494Z,41.70
2023-09-27T06:39:13.417Z,41.60
2023-09-27T06:40:13.392Z,42.70
2023-09-27T06:41:13.429Z,42.90
2023-09-27T06:42:13.407Z,43.30
2023-09-27T06:43:13.387Z,43.00
2023-09-27T06:44:13.376Z,41.80
2023-09-27T06:45:13.343Z,42.20
2023-09-27T06:46:14.946Z,41.50
2023-09-27T06:47:13.450Z,40.10
2023-09-27T06:48:13.442Z,40.10
2023-09-27T06:49:13.320Z,40.20
2023-09-27T06:50:13.286Z,41.50
2023-09-27T06:51:13.283Z,41.50
2023-09-27T06:52:13.301Z,40.90
2023-09-27T06:53:23.039Z,42.50
2023-09-27T06:54:13.488Z,43.00
2023-09-27T06:55:13.269Z,42.20
2023-09-27T06:56:13.267Z,40.60
2023-09-27T06:57:13.250Z,40.80
2023-09-27T06:58:13.242Z,40.00
2023-09-27T06:59:13.260Z,40.50
2023-09-27T07:00:13.238Z,38.30
2023-09-27T07:01:13.251Z,42.60
2023-09-27T07:02:13.201Z,39.30
2023-09-27T07:03:13.827Z,38.20
2023-09-27T07:04:13.320Z,39.00
2023-09-27T07:05:13.195Z,38.60
2023-09-27T07:06:13.142Z,37.30
2023-09-27T07:07:13.157Z,37.30
2023-09-27T07:08:13.148Z,36.90
2023-09-27T07:09:13.087Z,36.40
2023-09-27T07:10:13.111Z,36.60
2023-09-27T07:11:13.279Z,36.40
2023-09-27T07:12:13.068Z,35.40
2023-09-27T07:13:13.139Z,36.10
2023-09-27T07:14:13.098Z,38.40
2023-09-27T07:15:13.096Z,34.50
2023-09-27T07:16:13.021Z,34.40
2023-09-27T07:17:13.041Z,33.20
2023-09-27T07:18:13.157Z,35.70
2023-09-27T07:19:13.026Z,32.80
2023-09-27T07:20:13.034Z,27.70
2023-09-27T07:21:12.994Z,27.70
2023-09-27T07:22:12.962Z,24.50
2023-09-27T07:23:13.019Z,22.80
2023-09-27T07:24:13.019Z,22.60
2023-09-27T07:25:12.967Z,23.70
2023-09-27T07:26:13.028Z,23.10
2023-09-27T07:27:12.920Z,22.60
2023-09-27T07:28:12.891Z,19.80
2023-09-27T07:29:12.942Z,21.60
2023-09-27T07:30:12.854Z,19.50
2023-09-27T07:31:12.902Z,18.10
2023-09-27T07:32:12.889Z,19.30
2023-09-27T07:33:13.579Z,18.50
2023-09-27T07:34:12.871Z,18.50
2023-09-27T07:35:12.864Z,17.40
2023-09-27T07:36:12.792Z,17.00
2023-09-27T07:37:12.809Z,17.60
2023-09-27T07:38:13.021Z,16.30
2023-09-27T07:39:12.834Z,16.10
2023-09-27T07:40:12.845Z,15.70
2023-09-27T07:41:12.806Z,16.30
2023-09-27T07:42:12.730Z,17.50
2023-09-27T07:43:12.761Z,15.80
2023-09-27T07:44:12.739Z,16.70
2023-09-27T07:45:12.712Z,16.00
2023-09-27T07:46:12.720Z,16.10
2023-09-27T07:47:12.745Z,15.20
2023-09-27T07:48:12.744Z,15.40
2023-09-27T07:49:12.674Z,15.00
2023-09-27T07:50:12.713Z,15.10
2023-09-27T07:51:12.633Z,15.10
2023-09-27T07:52:12.671Z,14.70
2023-09-27T07:53:12.847Z,14.30
2023-09-27T07:54:12.716Z,14.40
2023-09-27T07:55:12.687Z,14.30
2023-09-27T07:56:12.618Z,15.10
2023-09-27T07:57:12.608Z,15.40
2023-09-27T07:58:12.587Z,15.40
2023-09-27T07:59:12.574Z,14.60
2023-09-27T08:00:12.542Z,14.30
2023-09-27T08:01:12.546Z,14.20
2023-09-27T08:02:12.598Z,14.00
2023-09-27T08:03:12.718Z,13.20
2023-09-27T08:04:12.616Z,13.00
2023-09-27T08:05:12.603Z,12.70
2023-09-27T08:06:12.714Z,12.70
2023-09-27T08:07:12.484Z,12.90
2023-09-27T08:08:12.481Z,12.80
2023-09-27T08:09:20.449Z,12.80
2023-09-27T08:11:12.533Z,12.60
2023-09-27T08:12:12.420Z,11.60
2023-09-27T08:13:12.430Z,11.60
2023-09-27T08:14:12.471Z,12.10
2023-09-27T08:15:12.413Z,12.00
2023-09-27T08:16:12.452Z,12.00
2023-09-27T08:17:12.488Z,12.60
2023-09-27T08:18:12.412Z,12.70
2023-09-27T08:19:12.358Z,11.40
2023-09-27T08:20:12.385Z,12.00
2023-09-27T08:21:12.616Z,10.70
2023-09-27T08:22:12.315Z,11.20
2023-09-27T08:23:12.367Z,11.60
2023-09-27T08:24:12.330Z,12.40
2023-09-27T08:25:12.303Z,13.00
2023-09-27T08:26:12.550Z,12.30
2023-09-27T08:27:12.271Z,11.70
2023-09-27T08:28:12.258Z,11.80
2023-09-27T08:29:12.263Z,12.80
2023-09-27T08:30:12.270Z,13.70
2023-09-27T08:31:12.232Z,13.30
2023-09-27T08:32:12.214Z,13.30
2023-09-27T08:33:12.246Z,12.60
2023-09-27T08:34:12.265Z,11.90
2023-09-27T08:35:12.374Z,12.00
2023-09-27T08:36:12.207Z,11.40
2023-09-27T08:37:12.158Z,10.90
2023-09-27T08:38:12.234Z,9.60
2023-09-27T08:39:12.150Z,9.40
2023-09-27T08:40:12.134Z,8.60
2023-09-27T08:41:12.125Z,7.70
2023-09-27T08:42:12.085Z,7.40
2023-09-27T08:43:12.134Z,7.00
2023-09-27T08:44:12.129Z,7.00
2023-09-27T08:45:12.069Z,6.70
2023-09-27T08:46:12.048Z,6.80
2023-09-27T08:47:12.071Z,6.70
2023-09-27T08:48:12.084Z,5.80
2023-09-27T08:49:12.034Z,6.00
2023-09-27T08:50:12.091Z,5.80
2023-09-27T08:51:12.012Z,5.90
2023-09-27T08:52:11.992Z,5.80
2023-09-27T08:53:12.227Z,5.60
2023-09-27T08:54:11.962Z,5.80
2023-09-27T08:55:11.954Z,5.00
2023-09-27T08:56:12.183Z,5.80
2023-09-27T08:57:11.977Z,5.70
2023-09-27T08:58:11.964Z,5.50
2023-09-27T08:59:11.968Z,5.20
2023-09-27T09:00:11.958Z,5.00
2023-09-27T09:01:11.966Z,5.60
2023-09-27T09:02:11.958Z,5.30
2023-09-27T09:03:12.203Z,5.40
2023-09-27T09:04:11.965Z,4.80
2023-09-27T09:05:11.924Z,4.80
2023-09-27T09:06:12.011Z,5.30
2023-09-27T09:07:11.881Z,4.90
2023-09-27T09:08:11.867Z,5.20
2023-09-27T09:09:11.857Z,5.00
2023-09-27T09:10:11.838Z,5.30
2023-09-27T09:11:11.890Z,5.20
2023-09-27T09:12:12.176Z,5.40
2023-09-27T09:13:11.771Z,5.40
2023-09-27T09:14:11.812Z,5.50
2023-09-27T09:15:11.758Z,5.20
2023-09-27T09:16:11.874Z,5.00
2023-09-27T09:17:11.778Z,5.00
2023-09-27T09:18:11.793Z,5.20
2023-09-27T09:19:11.710Z,5.10
2023-09-27T09:20:11.832Z,4.90
2023-09-27T09:21:11.765Z,5.30
2023-09-27T09:22:11.694Z,5.70
2023-09-27T09:23:11.686Z,5.80
2023-09-27T09:24:11.680Z,5.70
2023-09-27T09:25:11.719Z,6.10
2023-09-27T09:26:11.723Z,6.10
2023-09-27T09:27:13.588Z,6.10
2023-09-27T09:28:11.638Z,6.40
2023-09-27T09:29:11.758Z,6.00
2023-09-27T09:30:11.718Z,6.30
2023-09-27T09:31:11.662Z,6.30
2023-09-27T09:32:11.599Z,6.20
2023-09-27T09:33:11.636Z,6.20
2023-09-27T09:34:11.589Z,6.30
2023-09-27T09:35:11.605Z,6.30
2023-09-27T09:36:11.564Z,6.50
2023-09-27T09:37:11.543Z,6.20
2023-09-27T09:38:11.565Z,5.70
2023-09-27T09:39:11.552Z,5.60
2023-09-27T09:40:11.800Z,5.90
2023-09-27T09:41:11.583Z,6.00
2023-09-27T09:42:11.502Z,5.50
2023-09-27T09:43:11.478Z,5.50
2023-09-27T09:44:11.535Z,5.60
2023-09-27T09:45:11.521Z,5.50
2023-09-27T09:46:11.473Z,5.30
2023-09-27T09:47:11.584Z,5.00
2023-09-27T09:48:11.522Z,5.30
2023-09-27T09:49:11.444Z,5.00
2023-09-27T09:50:11.456Z,6.30
2023-09-27T09:51:11.396Z,6.30
2023-09-27T09:52:11.420Z,6.70
2023-09-27T09:53:11.396Z,6.20
2023-09-27T09:54:11.514Z,6.10
2023-09-27T09:55:21.255Z,5.50
2023-09-27T09:57:18.890Z,4.80
2023-09-27T09:58:11.483Z,5.20
2023-09-27T09:59:11.340Z,4.60
2023-09-27T10:00:11.416Z,5.70
2023-09-27T10:01:11.406Z,5.20
2023-09-27T10:02:11.291Z,5.00
2023-09-27T10:03:11.360Z,5.00
2023-09-27T10:04:11.300Z,5.10
2023-09-27T10:05:11.279Z,4.90
2023-09-27T10:06:11.232Z,5.00
2023-09-27T10:07:11.210Z,4.80
2023-09-27T10:08:11.270Z,4.40
2023-09-27T10:09:11.213Z,4.60
2023-09-27T10:10:11.362Z,4.90
2023-09-27T10:11:12.246Z,5.00
2023-09-27T10:12:11.258Z,4.90
2023-09-27T10:13:11.224Z,5.10
2023-09-27T10:14:11.195Z,4.60
2023-09-27T10:15:11.124Z,5.10
2023-09-27T10:16:11.157Z,5.20
2023-09-27T10:17:11.150Z,5.00
2023-09-27T10:18:11.226Z,4.80
2023-09-27T10:19:11.092Z,4.70
2023-09-27T10:20:11.233Z,4.50
2023-09-27T10:21:11.110Z,4.70
2023-09-27T10:22:11.097Z,4.30
2023-09-27T10:23:11.112Z,4.20
2023-09-27T10:24:11.026Z,4.30
2023-09-27T10:25:11.052Z,4.20
2023-09-27T10:26:11.114Z,3.90
2023-09-27T10:27:11.033Z,4.00
2023-09-27T10:28:11.029Z,4.10
2023-09-27T10:29:11.058Z,3.80
2023-09-27T10:30:10.987Z,3.80
2023-09-27T10:31:11.030Z,3.80
2023-09-27T10:32:11.029Z,4.00
2023-09-27T10:33:11.068Z,4.20
2023-09-27T10:34:10.968Z,4.00
2023-09-27T10:35:11.005Z,4.20
2023-09-27T10:36:10.939Z,4.10
2023-09-27T10:38:10.938Z,3.80
2023-09-27T10:39:10.880Z,4.10
2023-09-27T10:40:10.932Z,4.10
2023-09-27T10:41:10.979Z,3.80
2023-09-27T10:42:10.984Z,4.40
2023-09-27T10:43:10.914Z,4.20
2023-09-27T10:44:10.874Z,4.10
2023-09-27T10:45:10.866Z,4.40
2023-09-27T10:46:10.846Z,4.40
2023-09-27T10:47:10.857Z,4.80
2023-09-27T10:48:10.895Z,4.40
2023-09-27T10:49:10.774Z,4.50
2023-09-27T10:50:10.859Z,4.60
2023-09-27T10:51:10.752Z,4.50
2023-09-27T10:52:10.746Z,4.50
2023-09-27T10:53:10.759Z,4.40
2023-09-27T10:54:10.782Z,4.50
2023-09-27T10:55:10.732Z,4.20
2023-09-27T10:56:10.755Z,4.60
2023-09-27T10:57:10.694Z,4.50
2023-09-27T10:58:10.735Z,4.60
2023-09-27T10:59:10.697Z,4.20
2023-09-27T11:00:10.685Z,4.20
2023-09-27T11:01:10.664Z,4.50
2023-09-27T11:02:10.848Z,5.00
2023-09-27T11:03:10.791Z,5.00
2023-09-27T11:04:10.726Z,5.00
2023-09-27T11:05:10.779Z,4.90
2023-09-27T11:06:10.605Z,5.20
2023-09-27T11:07:10.590Z,5.40
2023-09-27T11:08:10.695Z,5.60
2023-09-27T11:09:10.596Z,6.10
2023-09-27T11:10:10.690Z,5.90
2023-09-27T11:11:10.960Z,5.60
2023-09-27T11:12:10.524Z,5.80
2023-09-27T11:13:10.584Z,5.40
2023-09-27T11:14:10.636Z,4.90
2023-09-27T11:15:10.504Z,4.80
2023-09-27T11:16:10.510Z,4.80
2023-09-27T11:17:10.659Z,5.00
2023-09-27T11:18:10.755Z,4.60
2023-09-27T11:19:10.458Z,4.20
2023-09-27T11:20:10.513Z,3.50
2023-09-27T11:21:10.484Z,3.90
2023-09-27T11:22:10.839Z,3.90
2023-09-27T11:23:10.485Z,3.50
2023-09-27T11:24:10.427Z,3.60
2023-09-27T11:25:10.392Z,4.10
2023-09-27T11:26:10.410Z,4.10
2023-09-27T11:27:10.417Z,4.00
2023-09-27T11:28:10.384Z,3.70
2023-09-27T11:29:10.401Z,3.90
2023-09-27T11:30:10.343Z,4.30
2023-09-27T11:31:10.388Z,3.90
2023-09-27T11:32:10.421Z,3.80
2023-09-27T11:33:10.368Z,3.80
2023-09-27T11:34:10.348Z,4.10
2023-09-27T11:35:10.333Z,4.00
2023-09-27T11:36:10.352Z,4.00
2023-09-27T11:37:10.308Z,4.20
2023-09-27T11:38:10.447Z,4.20
2023-09-27T11:39:10.279Z,4.10
2023-09-27T11:40:10.311Z,4.20
2023-09-27T11:41:10.291Z,3.60
2023-09-27T11:42:10.228Z,4.00
2023-09-27T11:43:10.222Z,3.80
2023-09-27T11:44:10.247Z,4.30
2023-09-27T11:45:10.192Z,3.70
2023-09-27T11:46:10.280Z,4.00
2023-09-27T11:47:10.290Z,4.10
2023-09-27T11:48:10.236Z,4.00
2023-09-27T11:49:10.156Z,4.10
2023-09-27T11:50:10.231Z,4.00
2023-09-27T11:51:10.256Z,4.30
2023-09-27T11:52:10.136Z,4.40
2023-09-27T11:53:10.150Z,4.50
2023-09-27T11:54:10.130Z,4.10
2023-09-27T11:55:10.109Z,4.40
2023-09-27T11:56:10.128Z,4.20
2023-09-27T11:57:10.070Z,4.80
2023-09-27T11:58:10.092Z,4.30
2023-09-27T11:59:10.053Z,4.50
2023-09-27T12:00:10.064Z,4.40
2023-09-27T12:01:10.037Z,5.00
2023-09-27T12:02:20.482Z,4.40
2023-09-27T12:03:10.095Z,4.40
2023-09-27T12:04:10.176Z,4.40
2023-09-27T12:05:10.378Z,4.80
2023-09-27T12:06:10.218Z,4.80
2023-09-27T12:07:10.421Z,4.60
2023-09-27T12:08:10.046Z,4.60
2023-09-27T12:09:09.947Z,4.80
2023-09-27T12:10:09.942Z,4.70
2023-09-27T12:11:10.222Z,4.30
2023-09-27T12:12:09.898Z,4.50
2023-09-27T12:13:09.888Z,4.40
2023-09-27T12:14:09.970Z,4.40
2023-09-27T12:15:09.887Z,4.30
2023-09-27T12:16:09.866Z,4.50
2023-09-27T12:17:09.914Z,4.10
2023-09-27T12:18:10.001Z,3.90
2023-09-27T12:19:09.843Z,3.90
2023-09-27T12:20:22.229Z,4.00
2023-09-27T12:21:09.817Z,3.80
2023-09-27T12:22:09.800Z,3.70
2023-09-27T12:23:09.938Z,3.80
2023-09-27T12:24:09.788Z,3.70
2023-09-27T12:25:09.802Z,3.30
2023-09-27T12:26:09.912Z,3.60
2023-09-27T12:27:09.738Z,3.20
2023-09-27T12:28:09.757Z,3.50
2023-09-27T12:29:09.817Z,3.70
2023-09-27T12:30:09.723Z,3.50
2023-09-27T12:31:09.715Z,3.30
2023-09-27T12:32:09.830Z,3.40
2023-09-27T12:33:09.766Z,3.00
2023-09-27T12:34:09.685Z,3.40
2023-09-27T12:35:09.652Z,3.10
2023-09-27T12:36:09.665Z,3.00
2023-09-27T12:37:09.736Z,3.00
2023-09-27T12:38:09.624Z,2.90
2023-09-27T12:39:09.673Z,3.20
2023-09-27T12:40:09.587Z,2.70
2023-09-27T12:41:09.582Z,3.10
2023-09-27T12:42:09.615Z,3.40
2023-09-27T12:43:11.492Z,3.00
2023-09-27T12:44:11.765Z,3.00
2023-09-27T12:45:09.628Z,2.90
2023-09-27T12:46:09.544Z,2.70
2023-09-27T12:47:09.556Z,2.90
2023-09-27T12:48:09.733Z,2.70
2023-09-27T12:49:09.597Z,2.70
2023-09-27T12:50:09.504Z,2.90
2023-09-27T12:51:09.509Z,2.60
2023-09-27T12:52:09.493Z,2.80
2023-09-27T12:53:09.477Z,2.70
2023-09-27T12:54:09.445Z,2.60
2023-09-27T12:55:09.428Z,2.40
2023-09-27T12:56:09.456Z,2.50
2023-09-27T12:57:09.425Z,2.50
2023-09-27T12:58:09.404Z,2.60
2023-09-27T12:59:09.407Z,2.50
2023-09-27T13:00:09.401Z,2.60
2023-09-27T13:01:09.534Z,2.30
2023-09-27T13:02:09.369Z,2.50
2023-09-27T13:03:09.468Z,3.10
2023-09-27T13:04:09.445Z,2.60